createdAt,value
2018-06-10T00:00:51.821Z,0
2018-06-10T00:01:53.807Z,0
2018-06-10T00:02:55.790Z,0
2018-06-10T00:03:57.771Z,0
2018-06-10T00:04:59.777Z,0
2018-06-10T00:06:01.779Z,0
2018-06-10T00:07:03.776Z,0
2018-06-10T00:08:05.798Z,0
2018-06-10T00:09:07.801Z,0
2018-06-10T00:10:10.085Z,0
2018-06-10T00:11:12.092Z,0
2018-06-10T00:12:14.093Z,0
2018-06-10T00:13:16.098Z,0
2018-06-10T00:14:18.109Z,0
2018-06-10T00:15:20.767Z,0
2018-06-10T00:16:22.774Z,0
2018-06-10T00:17:24.780Z,0
2018-06-10T00:18:26.787Z,0
2018-06-10T00:19:28.789Z,0
2018-06-10T00:20:31.071Z,0
2018-06-10T00:21:33.082Z,0
2018-06-10T00:22:35.147Z,0
2018-06-10T00:23:37.143Z,0
2018-06-10T00:24:39.153Z,0
2018-06-10T00:25:41.156Z,0
2018-06-10T00:26:43.153Z,0
2018-06-10T00:27:45.210Z,0
2018-06-10T00:28:47.855Z,0
2018-06-10T00:29:49.870Z,0
2018-06-10T00:30:51.866Z,0
2018-06-10T00:31:53.874Z,0
2018-06-10T00:32:56.176Z,0
2018-06-10T00:33:58.172Z,0
2018-06-10T00:35:00.175Z,0
2018-06-10T00:36:02.272Z,0
2018-06-10T00:37:04.282Z,0
2018-06-10T00:38:06.669Z,0
2018-06-10T00:39:08.669Z,0
2018-06-10T00:40:10.673Z,0
2018-06-10T00:41:12.672Z,0
2018-06-10T00:42:14.736Z,0
2018-06-10T00:43:16.745Z,0
2018-06-10T00:44:18.751Z,0
2018-06-10T00:45:20.756Z,0
2018-06-10T00:46:22.761Z,0
2018-06-10T00:47:24.827Z,0
2018-06-10T00:48:26.841Z,0
2018-06-10T00:49:29.124Z,0
2018-06-10T00:50:31.513Z,0
2018-06-10T00:51:33.518Z,0
2018-06-10T00:52:36.081Z,0
2018-06-10T00:53:38.147Z,0
2018-06-10T00:54:40.434Z,0
2018-06-10T00:55:42.422Z,0
2018-06-10T00:56:44.715Z,0
2018-06-10T00:57:46.726Z,0
2018-06-10T00:58:48.730Z,0
2018-06-10T00:59:50.745Z,0
2018-06-10T01:00:53.449Z,0
2018-06-10T01:01:55.461Z,0
2018-06-10T01:02:57.454Z,0
2018-06-10T01:03:59.459Z,0
2018-06-10T01:05:01.546Z,0
2018-06-10T01:06:03.545Z,0
2018-06-10T01:07:05.547Z,0
2018-06-10T01:08:07.550Z,0
2018-06-10T01:09:09.556Z,0
2018-06-10T01:10:11.898Z,0
2018-06-10T01:11:13.905Z,0
2018-06-10T01:12:15.917Z,0
2018-06-10T01:13:17.921Z,0
2018-06-10T01:14:20.201Z,0
2018-06-10T01:15:22.209Z,0
2018-06-10T01:16:24.278Z,0
2018-06-10T01:17:26.284Z,0
2018-06-10T01:18:28.289Z,0
2018-06-10T01:19:30.293Z,0
2018-06-10T01:20:32.583Z,0
2018-06-10T01:21:34.578Z,0
2018-06-10T01:22:36.580Z,0
2018-06-10T01:23:38.595Z,0
2018-06-10T01:24:41.156Z,0
2018-06-10T01:25:43.441Z,0
2018-06-10T01:26:45.451Z,0
2018-06-10T01:27:47.583Z,0
2018-06-10T01:28:49.592Z,0
2018-06-10T01:29:51.594Z,0
2018-06-10T01:30:53.592Z,0
2018-06-10T01:31:55.596Z,0
2018-06-10T01:32:57.597Z,0
2018-06-10T01:33:59.601Z,0
2018-06-10T01:35:01.605Z,0
2018-06-10T01:36:03.618Z,0
2018-06-10T01:37:05.902Z,0
2018-06-10T01:38:07.896Z,0
2018-06-10T01:39:09.904Z,0
2018-06-10T01:40:11.910Z,0
2018-06-10T01:41:13.909Z,0
2018-06-10T01:42:16.194Z,0
2018-06-10T01:43:18.206Z,0
2018-06-10T01:44:20.209Z,0
2018-06-10T01:45:22.196Z,0
2018-06-10T01:46:24.199Z,0
2018-06-10T01:47:26.209Z,0
2018-06-10T01:48:28.515Z,0
2018-06-10T01:49:30.514Z,0
2018-06-10T01:50:32.515Z,0
2018-06-10T01:51:34.519Z,0
2018-06-10T01:52:36.915Z,0
2018-06-10T01:53:38.917Z,0
2018-06-10T01:54:40.927Z,0
2018-06-10T01:55:42.929Z,0
2018-06-10T01:56:45.202Z,0
2018-06-10T01:57:47.209Z,0
2018-06-10T01:58:49.602Z,0
2018-06-10T01:59:51.987Z,0
2018-06-10T02:00:53.991Z,0
2018-06-10T02:01:55.991Z,0
2018-06-10T02:02:58.279Z,0
2018-06-10T02:04:00.284Z,0
2018-06-10T02:05:02.970Z,0
2018-06-10T02:06:04.979Z,0
2018-06-10T02:07:07.271Z,0
2018-06-10T02:08:09.272Z,0
2018-06-10T02:09:14.324Z,0
2018-06-10T02:10:16.370Z,0
2018-06-10T02:11:18.407Z,0
2018-06-10T02:12:21.036Z,0
2018-06-10T02:13:23.081Z,0
2018-06-10T02:14:25.130Z,0
2018-06-10T02:15:27.176Z,0
2018-06-10T02:16:29.225Z,0
2018-06-10T02:17:31.274Z,0
2018-06-10T02:18:33.314Z,0
2018-06-10T02:19:35.360Z,0
2018-06-10T02:20:37.420Z,0
2018-06-10T02:21:39.460Z,0
2018-06-10T02:22:41.512Z,0
2018-06-10T02:23:43.557Z,0
2018-06-10T02:24:45.599Z,0
2018-06-10T02:25:47.642Z,0
2018-06-10T02:26:49.684Z,0
2018-06-10T02:27:51.750Z,0
2018-06-10T02:28:53.791Z,0
2018-06-10T02:29:56.103Z,0
2018-06-10T02:30:58.147Z,0
2018-06-10T02:32:00.867Z,0
2018-06-10T02:33:02.945Z,0
2018-06-10T02:34:05.278Z,0
2018-06-10T02:35:07.627Z,0
2018-06-10T02:36:09.680Z,0
2018-06-10T02:37:12.000Z,1
2018-06-10T02:38:14.045Z,1
2018-06-10T02:39:16.378Z,1
2018-06-10T02:40:18.707Z,1
2018-06-10T02:41:20.752Z,1
2018-06-10T02:42:22.794Z,1
2018-06-10T02:43:24.806Z,1
2018-06-10T02:44:27.077Z,1
2018-06-10T02:45:29.083Z,1
2018-06-10T02:46:31.095Z,1
2018-06-10T02:47:33.089Z,1
2018-06-10T02:48:35.094Z,1
2018-06-10T02:49:37.656Z,2
2018-06-10T02:50:40.048Z,2
2018-06-10T02:51:42.045Z,2
2018-06-10T02:52:44.334Z,2
2018-06-10T02:53:46.631Z,2
2018-06-10T02:54:48.626Z,2
2018-06-10T02:55:50.637Z,2
2018-06-10T02:56:52.652Z,3
2018-06-10T02:57:55.238Z,3
2018-06-10T02:58:57.531Z,3
2018-06-10T02:59:59.814Z,4
2018-06-10T03:01:02.103Z,4
2018-06-10T03:02:04.104Z,4
2018-06-10T03:03:06.401Z,5
2018-06-10T03:04:09.180Z,5
2018-06-10T03:05:11.466Z,5
2018-06-10T03:06:13.748Z,6
2018-06-10T03:07:16.136Z,6
2018-06-10T03:08:18.418Z,6
2018-06-10T03:09:20.429Z,7
2018-06-10T03:10:22.439Z,7
2018-06-10T03:11:24.452Z,7
2018-06-10T03:12:26.456Z,7
2018-06-10T03:13:28.452Z,7
2018-06-10T03:14:30.842Z,7
2018-06-10T03:15:32.842Z,7
2018-06-10T03:16:35.126Z,7
2018-06-10T03:17:37.523Z,7
2018-06-10T03:18:39.524Z,7
2018-06-10T03:19:41.527Z,7
2018-06-10T03:20:43.534Z,7
2018-06-10T03:21:45.536Z,7
2018-06-10T03:22:47.552Z,7
2018-06-10T03:23:49.557Z,7
2018-06-10T03:24:51.759Z,8
2018-06-10T03:25:53.766Z,8
2018-06-10T03:26:55.775Z,8
2018-06-10T03:27:57.776Z,8
2018-06-10T03:28:59.771Z,8
2018-06-10T03:30:01.781Z,9
2018-06-10T03:31:04.371Z,9
2018-06-10T03:32:06.751Z,9
2018-06-10T03:33:09.034Z,10
2018-06-10T03:34:11.049Z,10
2018-06-10T03:35:13.053Z,10
2018-06-10T03:36:15.059Z,10
2018-06-10T03:37:17.448Z,10
2018-06-10T03:38:20.041Z,11
2018-06-10T03:39:22.625Z,11
2018-06-10T03:40:24.628Z,12
2018-06-10T03:41:26.626Z,12
2018-06-10T03:42:28.635Z,13
2018-06-10T03:43:30.625Z,13
2018-06-10T03:44:32.634Z,14
2018-06-10T03:45:34.639Z,14
2018-06-10T03:46:36.642Z,15
2018-06-10T03:47:38.645Z,15
2018-06-10T03:48:40.649Z,16
2018-06-10T03:49:42.652Z,16
2018-06-10T03:50:44.656Z,17
2018-06-10T03:51:46.656Z,17
2018-06-10T03:52:48.670Z,17
2018-06-10T03:53:50.723Z,18
2018-06-10T03:54:52.774Z,18
2018-06-10T03:55:54.811Z,19
2018-06-10T03:56:56.856Z,19
2018-06-10T03:57:58.895Z,19
2018-06-10T03:59:00.938Z,20
2018-06-10T04:00:03.219Z,21
2018-06-10T04:01:05.222Z,20
2018-06-10T04:02:07.530Z,21
2018-06-10T04:03:09.818Z,22
2018-06-10T04:04:11.831Z,22
2018-06-10T04:05:13.836Z,23
2018-06-10T04:06:15.839Z,24
2018-06-10T04:07:18.236Z,24
2018-06-10T04:08:20.236Z,25
2018-06-10T04:09:22.520Z,25
2018-06-10T04:10:24.523Z,25
2018-06-10T04:11:26.528Z,26
2018-06-10T04:12:28.526Z,26
2018-06-10T04:13:30.535Z,27
2018-06-10T04:14:32.542Z,27
2018-06-10T04:15:34.547Z,28
2018-06-10T04:16:36.545Z,29
2018-06-10T04:17:38.554Z,29
2018-06-10T04:18:40.564Z,29
2018-06-10T04:19:42.571Z,30
2018-06-10T04:20:44.866Z,30
2018-06-10T04:21:47.546Z,30
2018-06-10T04:22:49.550Z,29
2018-06-10T04:23:51.829Z,29
2018-06-10T04:24:54.273Z,29
2018-06-10T04:25:56.579Z,29
2018-06-10T04:26:58.581Z,30
2018-06-10T04:28:00.622Z,29
2018-06-10T04:29:02.633Z,29
2018-06-10T04:30:05.598Z,29
2018-06-10T04:31:08.024Z,29
2018-06-10T04:32:10.354Z,29
2018-06-10T04:33:12.405Z,29
2018-06-10T04:34:14.446Z,29
2018-06-10T04:35:16.486Z,29
2018-06-10T04:36:18.534Z,30
2018-06-10T04:37:20.584Z,30
2018-06-10T04:38:22.629Z,30
2018-06-10T04:39:24.685Z,30
2018-06-10T04:40:26.725Z,31
2018-06-10T04:41:29.064Z,31
2018-06-10T04:42:31.403Z,31
2018-06-10T04:43:33.751Z,32
2018-06-10T04:44:36.467Z,32
2018-06-10T04:45:38.510Z,32
2018-06-10T04:46:40.552Z,32
2018-06-10T04:47:42.605Z,33
2018-06-10T04:48:44.642Z,33
2018-06-10T04:49:46.981Z,33
2018-06-10T04:50:49.027Z,34
2018-06-10T04:51:51.076Z,34
2018-06-10T04:52:53.128Z,35
2018-06-10T04:53:55.177Z,36
2018-06-10T04:54:57.226Z,36
2018-06-10T04:55:59.276Z,36
2018-06-10T04:57:01.312Z,37
2018-06-10T04:58:03.363Z,37
2018-06-10T04:59:05.400Z,37
2018-06-10T05:00:07.449Z,37
2018-06-10T05:01:09.784Z,38
2018-06-10T05:02:12.116Z,38
2018-06-10T05:03:14.167Z,39
2018-06-10T05:04:16.208Z,39
2018-06-10T05:05:18.558Z,40
2018-06-10T05:06:20.557Z,40
2018-06-10T05:07:22.559Z,41
2018-06-10T05:08:24.897Z,41
2018-06-10T05:09:57.017Z,43
2018-06-10T05:10:59.061Z,44
2018-06-10T05:12:01.731Z,44
2018-06-10T05:13:04.030Z,44
2018-06-10T05:14:06.047Z,45
2018-06-10T05:15:08.333Z,46
2018-06-10T05:16:10.338Z,47
2018-06-10T05:17:12.350Z,47
2018-06-10T05:18:14.353Z,48
2018-06-10T05:19:16.376Z,49
2018-06-10T05:20:18.384Z,50
2018-06-10T05:21:20.384Z,51
2018-06-10T05:22:22.773Z,51
2018-06-10T05:23:24.773Z,52
2018-06-10T05:24:27.166Z,52
2018-06-10T05:25:29.183Z,52
2018-06-10T05:26:31.563Z,52
2018-06-10T05:27:33.579Z,52
2018-06-10T05:28:35.861Z,53
2018-06-10T05:29:38.144Z,53
2018-06-10T05:30:40.152Z,53
2018-06-10T05:31:42.160Z,54
2018-06-10T05:32:44.164Z,54
2018-06-10T05:33:46.163Z,55
2018-06-10T05:34:48.445Z,55
2018-06-10T05:35:50.455Z,55
2018-06-10T05:36:52.450Z,55
2018-06-10T05:37:54.465Z,54
2018-06-10T05:38:56.473Z,54
2018-06-10T05:39:58.472Z,54
2018-06-10T05:41:00.477Z,53
2018-06-10T05:42:03.151Z,53
2018-06-10T05:43:05.157Z,53
2018-06-10T05:44:10.229Z,52
2018-06-10T05:45:13.652Z,52
2018-06-10T05:46:45.739Z,51
2018-06-10T05:47:47.791Z,48
2018-06-10T05:48:49.846Z,47
2018-06-10T05:49:52.253Z,45
2018-06-10T05:50:54.295Z,44
2018-06-10T05:51:56.344Z,41
2018-06-10T05:52:58.400Z,41
2018-06-10T05:54:00.450Z,40
2018-06-10T05:55:02.494Z,39
2018-06-10T05:56:04.542Z,39
2018-06-10T05:57:06.594Z,38
2018-06-10T05:58:08.944Z,38
2018-06-10T05:59:11.680Z,38
2018-06-10T06:00:13.722Z,40
2018-06-10T06:01:15.777Z,40
2018-06-10T06:02:17.830Z,41
2018-06-10T06:03:20.461Z,41
2018-06-10T06:04:22.511Z,43
2018-06-10T06:05:24.553Z,46
2018-06-10T06:06:26.605Z,46
2018-06-10T06:07:28.659Z,48
2018-06-10T06:08:31.086Z,49
2018-06-10T06:09:33.139Z,50
2018-06-10T06:10:35.188Z,51
2018-06-10T06:11:37.235Z,51
2018-06-10T06:12:39.287Z,52
2018-06-10T06:13:41.335Z,53
2018-06-10T06:14:43.391Z,53
2018-06-10T06:15:45.436Z,54
2018-06-10T06:16:47.484Z,55
2018-06-10T06:17:49.540Z,56
2018-06-10T06:18:51.582Z,55
2018-06-10T06:19:53.622Z,55
2018-06-10T06:20:55.673Z,56
2018-06-10T06:21:58.014Z,57
2018-06-10T06:23:00.065Z,57
2018-06-10T06:24:02.395Z,58
2018-06-10T06:25:04.445Z,59
2018-06-10T06:26:06.495Z,60
2018-06-10T06:27:08.541Z,62
2018-06-10T06:28:10.596Z,64
2018-06-10T06:29:13.039Z,66
2018-06-10T06:30:15.089Z,67
2018-06-10T06:31:17.131Z,69
2018-06-10T06:32:19.180Z,71
2018-06-10T06:33:21.678Z,72
2018-06-10T06:34:23.687Z,73
2018-06-10T06:35:25.739Z,74
2018-06-10T06:36:28.376Z,75
2018-06-10T06:37:30.434Z,75
2018-06-10T06:38:32.864Z,74
2018-06-10T06:39:34.919Z,74
2018-06-10T06:40:36.964Z,75
2018-06-10T06:41:39.413Z,75
2018-06-10T06:42:41.463Z,75
2018-06-10T06:43:43.515Z,73
2018-06-10T06:44:45.580Z,72
2018-06-10T06:45:48.210Z,71
2018-06-10T06:46:50.275Z,70
2018-06-10T06:47:52.334Z,69
2018-06-10T06:48:54.380Z,68
2018-06-10T06:49:56.435Z,69
2018-06-10T06:50:58.488Z,69
2018-06-10T06:52:00.554Z,70
2018-06-10T06:53:02.906Z,71
2018-06-10T06:54:04.960Z,72
2018-06-10T06:55:07.014Z,72
2018-06-10T06:56:09.065Z,72
2018-06-10T06:57:11.492Z,71
2018-06-10T06:58:13.550Z,70
2018-06-10T06:59:15.607Z,70
2018-06-10T07:00:17.663Z,70
2018-06-10T07:01:19.710Z,70
2018-06-10T07:02:21.761Z,70
2018-06-10T07:03:23.814Z,69
2018-06-10T07:04:25.865Z,69
2018-06-10T07:05:27.923Z,67
2018-06-10T07:06:29.989Z,66
2018-06-10T07:07:32.038Z,66
2018-06-10T07:08:34.089Z,67
2018-06-10T07:09:36.140Z,67
2018-06-10T07:10:38.192Z,68
2018-06-10T07:11:40.251Z,68
2018-06-10T07:12:42.316Z,69
2018-06-10T07:13:44.663Z,71
2018-06-10T07:14:46.718Z,70
2018-06-10T07:15:49.071Z,71
2018-06-10T07:16:51.125Z,72
2018-06-10T07:17:53.172Z,73
2018-06-10T07:18:55.221Z,74
2018-06-10T07:19:57.598Z,74
2018-06-10T07:20:59.640Z,74
2018-06-10T07:22:01.689Z,74
2018-06-10T07:23:03.752Z,75
2018-06-10T07:24:05.805Z,76
2018-06-10T07:25:07.857Z,76
2018-06-10T07:26:09.908Z,76
2018-06-10T07:27:11.958Z,76
2018-06-10T07:28:14.310Z,76
2018-06-10T07:29:16.645Z,77
2018-06-10T07:30:18.690Z,77
2018-06-10T07:31:20.749Z,78
2018-06-10T07:32:22.789Z,79
2018-06-10T07:33:24.865Z,79
2018-06-10T07:34:26.904Z,79
2018-06-10T07:35:29.244Z,80
2018-06-10T07:36:31.684Z,79
2018-06-10T07:37:34.032Z,79
2018-06-10T07:38:36.089Z,80
2018-06-10T07:39:38.144Z,80
2018-06-10T07:40:40.265Z,81
2018-06-10T07:41:42.257Z,81
2018-06-10T07:42:44.310Z,81
2018-06-10T07:43:46.363Z,81
2018-06-10T07:44:48.410Z,82
2018-06-10T07:45:50.470Z,82
2018-06-10T07:46:53.496Z,82
2018-06-10T07:47:55.546Z,84
2018-06-10T07:48:57.991Z,86
2018-06-10T07:50:00.052Z,88
2018-06-10T07:51:02.108Z,88
2018-06-10T07:52:04.757Z,88
2018-06-10T07:53:07.094Z,89
2018-06-10T07:54:09.147Z,88
2018-06-10T07:55:12.067Z,88
2018-06-10T07:56:14.424Z,88
2018-06-10T07:57:16.772Z,89
2018-06-10T07:58:19.105Z,90
2018-06-10T07:59:21.159Z,90
2018-06-10T08:00:23.218Z,90
2018-06-10T08:01:25.278Z,91
2018-06-10T08:02:27.334Z,92
2018-06-10T08:03:29.406Z,93
2018-06-10T08:04:31.459Z,94
2018-06-10T08:05:33.511Z,94
2018-06-10T08:06:35.569Z,93
2018-06-10T08:07:37.618Z,92
2018-06-10T08:08:39.675Z,91
2018-06-10T08:09:41.728Z,90
2018-06-10T08:10:43.783Z,91
2018-06-10T08:11:46.230Z,94
2018-06-10T08:12:48.272Z,96
2018-06-10T08:13:50.721Z,98
2018-06-10T08:14:52.788Z,99
2018-06-10T08:15:54.844Z,99
2018-06-10T08:16:56.899Z,99
2018-06-10T08:17:58.959Z,97
2018-06-10T08:19:01.312Z,95
2018-06-10T08:20:03.574Z,97
2018-06-10T08:21:05.633Z,101
2018-06-10T08:22:07.687Z,106
2018-06-10T08:23:09.746Z,110
2018-06-10T08:24:11.797Z,112
2018-06-10T08:25:13.852Z,113
2018-06-10T08:26:16.190Z,114
2018-06-10T08:27:19.206Z,114
2018-06-10T08:28:21.832Z,117
2018-06-10T08:29:23.878Z,134
2018-06-10T08:30:25.939Z,163
2018-06-10T08:31:27.992Z,149
2018-06-10T08:32:30.050Z,138
2018-06-10T08:33:32.105Z,131
2018-06-10T08:34:34.442Z,142
2018-06-10T08:35:36.502Z,154
2018-06-10T08:36:38.571Z,162
2018-06-10T08:37:40.613Z,175
2018-06-10T08:38:42.673Z,186
2018-06-10T08:39:45.023Z,202
2018-06-10T08:40:47.084Z,190
2018-06-10T08:41:49.141Z,262
2018-06-10T08:42:51.190Z,312
2018-06-10T08:43:53.315Z,298
2018-06-10T08:44:55.321Z,318
2018-06-10T08:45:57.670Z,367
2018-06-10T08:46:59.745Z,365
2018-06-10T08:48:02.077Z,333
2018-06-10T08:49:04.529Z,326
2018-06-10T08:50:06.584Z,285
2018-06-10T08:51:08.634Z,239
2018-06-10T08:52:10.685Z,298
2018-06-10T08:53:12.735Z,271
2018-06-10T08:54:14.787Z,352
2018-06-10T08:55:16.861Z,356
2018-06-10T08:56:18.904Z,378
2018-06-10T08:57:20.962Z,343
2018-06-10T08:58:23.018Z,348
2018-06-10T08:59:25.746Z,366
2018-06-10T09:00:27.803Z,267
2018-06-10T09:01:29.858Z,251
2018-06-10T09:02:31.929Z,237
2018-06-10T09:03:34.371Z,190
2018-06-10T09:04:36.417Z,176
2018-06-10T09:05:38.482Z,201
2018-06-10T09:06:40.536Z,237
2018-06-10T09:07:42.599Z,262
2018-06-10T09:08:44.691Z,355
2018-06-10T09:09:46.697Z,388
2018-06-10T09:10:48.763Z,370
2018-06-10T09:11:51.131Z,361
2018-06-10T09:12:53.188Z,329
2018-06-10T09:13:55.251Z,410
2018-06-10T09:14:57.309Z,401
2018-06-10T09:15:59.375Z,401
2018-06-10T09:17:01.424Z,368
2018-06-10T09:18:03.483Z,322
2018-06-10T09:19:05.843Z,407
2018-06-10T09:20:07.901Z,433
2018-06-10T09:21:09.960Z,417
2018-06-10T09:22:12.072Z,412
2018-06-10T09:23:14.079Z,372
2018-06-10T09:24:16.429Z,380
2018-06-10T09:25:18.781Z,382
2018-06-10T09:26:20.857Z,378
2018-06-10T09:27:22.924Z,432
2018-06-10T09:28:25.671Z,423
2018-06-10T09:29:28.036Z,400
2018-06-10T09:30:30.098Z,381
2018-06-10T09:31:32.159Z,309
2018-06-10T09:32:34.503Z,409
2018-06-10T09:33:36.564Z,364
2018-06-10T09:34:38.629Z,360
2018-06-10T09:35:40.678Z,361
2018-06-10T09:36:42.741Z,296
2018-06-10T09:37:45.111Z,342
2018-06-10T09:38:47.167Z,321
2018-06-10T09:39:49.231Z,292
2018-06-10T09:40:51.578Z,348
2018-06-10T09:41:53.922Z,361
2018-06-10T09:42:55.984Z,360
2018-06-10T09:43:58.046Z,319
2018-06-10T09:45:00.104Z,322
2018-06-10T09:46:02.163Z,361
2018-06-10T09:47:04.516Z,368
2018-06-10T09:48:06.966Z,296
2018-06-10T09:49:09.026Z,379
2018-06-10T09:50:11.083Z,375
2018-06-10T09:51:13.460Z,358
2018-06-10T09:52:16.120Z,363
2018-06-10T09:53:18.171Z,376
2018-06-10T09:54:20.231Z,365
2018-06-10T09:55:22.387Z,374
2018-06-10T09:56:24.354Z,393
2018-06-10T09:57:26.410Z,414
2018-06-10T09:58:28.472Z,387
2018-06-10T09:59:30.539Z,414
2018-06-10T10:00:32.986Z,386
2018-06-10T10:01:35.057Z,374
2018-06-10T10:02:37.125Z,349
2018-06-10T10:03:39.182Z,364
2018-06-10T10:04:41.250Z,379
2018-06-10T10:05:43.320Z,386
2018-06-10T10:06:45.385Z,341
2018-06-10T10:07:47.834Z,394
2018-06-10T10:08:50.647Z,287
2018-06-10T10:09:52.677Z,362
2018-06-10T10:10:54.741Z,385
2018-06-10T10:11:56.798Z,375
2018-06-10T10:12:58.862Z,398
2018-06-10T10:14:00.920Z,428
2018-06-10T10:15:03.263Z,376
2018-06-10T10:16:05.613Z,397
2018-06-10T10:17:07.680Z,356
2018-06-10T10:18:10.052Z,267
2018-06-10T10:19:12.105Z,326
2018-06-10T10:20:14.173Z,340
2018-06-10T10:21:16.232Z,379
2018-06-10T10:22:18.582Z,410
2018-06-10T10:23:20.643Z,394
2018-06-10T10:24:22.712Z,380
2018-06-10T10:25:24.758Z,350
2018-06-10T10:26:26.819Z,371
2018-06-10T10:27:28.882Z,378
2018-06-10T10:28:30.944Z,417
2018-06-10T10:29:33.008Z,413
2018-06-10T10:30:35.062Z,440
2018-06-10T10:31:37.129Z,399
2018-06-10T10:32:39.193Z,396
2018-06-10T10:33:41.249Z,375
2018-06-10T10:34:43.314Z,360
2018-06-10T10:35:45.669Z,369
2018-06-10T10:36:47.728Z,397
2018-06-10T10:37:49.798Z,332
2018-06-10T10:38:51.853Z,294
2018-06-10T10:39:53.923Z,278
2018-06-10T10:40:55.996Z,318
2018-06-10T10:41:58.059Z,368
2018-06-10T10:43:00.129Z,431
2018-06-10T10:44:02.189Z,445
2018-06-10T10:45:04.544Z,483
2018-06-10T10:46:06.608Z,285
2018-06-10T10:47:08.679Z,303
2018-06-10T10:48:10.738Z,295
2018-06-10T10:49:12.794Z,428
2018-06-10T10:50:15.147Z,448
2018-06-10T10:51:17.207Z,282
2018-06-10T10:52:19.260Z,300
2018-06-10T10:53:21.325Z,287
2018-06-10T10:54:23.773Z,350
2018-06-10T10:55:25.839Z,299
2018-06-10T10:56:27.900Z,348
2018-06-10T10:57:29.966Z,357
2018-06-10T10:58:32.036Z,302
2018-06-10T10:59:34.092Z,404
2018-06-10T11:00:36.149Z,445
2018-06-10T11:01:38.209Z,471
2018-06-10T11:02:40.275Z,348
2018-06-10T11:03:42.606Z,437
2018-06-10T11:04:44.674Z,400
2018-06-10T11:05:47.003Z,218
2018-06-10T11:06:49.454Z,427
2018-06-10T11:07:51.912Z,415
2018-06-10T11:08:53.973Z,353
2018-06-10T11:09:56.337Z,253
2018-06-10T11:10:58.694Z,403
2018-06-10T11:12:00.757Z,410
2018-06-10T11:13:02.820Z,401
2018-06-10T11:14:04.882Z,415
2018-06-10T11:15:06.957Z,419
2018-06-10T11:16:09.018Z,453
2018-06-10T11:17:11.079Z,452
2018-06-10T11:18:13.147Z,460
2018-06-10T11:19:15.209Z,472
2018-06-10T11:20:17.270Z,473
2018-06-10T11:21:19.334Z,489
2018-06-10T11:22:21.390Z,475
2018-06-10T11:23:23.749Z,474
2018-06-10T11:24:26.197Z,459
2018-06-10T11:25:28.258Z,452
2018-06-10T11:26:30.321Z,340
2018-06-10T11:27:32.385Z,198
2018-06-10T11:28:34.448Z,387
2018-06-10T11:29:36.512Z,177
2018-06-10T11:30:38.577Z,155
2018-06-10T11:31:40.639Z,138
2018-06-10T11:32:42.694Z,129
2018-06-10T11:33:44.770Z,127
2018-06-10T11:34:47.135Z,125
2018-06-10T11:35:49.196Z,138
2018-06-10T11:36:51.563Z,152
2018-06-10T11:37:53.640Z,109
2018-06-10T11:38:55.690Z,81
2018-06-10T11:39:57.750Z,70
2018-06-10T11:40:59.816Z,69
2018-06-10T11:42:01.876Z,71
2018-06-10T11:43:03.929Z,75
2018-06-10T11:44:06.270Z,74
2018-06-10T11:45:08.330Z,70
2018-06-10T11:46:10.388Z,68
2018-06-10T11:47:12.443Z,63
2018-06-10T11:48:14.513Z,58
2018-06-10T11:49:16.568Z,53
2018-06-10T11:50:18.921Z,50
2018-06-10T11:51:21.280Z,47
2018-06-10T11:52:23.630Z,47
2018-06-10T11:53:25.693Z,47
2018-06-10T11:54:28.028Z,48
2018-06-10T11:55:30.081Z,48
2018-06-10T11:56:32.436Z,45
2018-06-10T11:57:34.481Z,41
2018-06-10T11:58:36.537Z,36
2018-06-10T11:59:38.600Z,31
2018-06-10T12:00:40.657Z,27
2018-06-10T12:01:42.710Z,24
2018-06-10T12:02:45.052Z,21
2018-06-10T12:03:47.447Z,18
2018-06-10T12:04:49.501Z,17
2018-06-10T12:05:51.551Z,16
2018-06-10T12:06:53.619Z,15
2018-06-10T12:07:55.711Z,15
2018-06-10T12:08:57.730Z,16
2018-06-10T12:09:59.777Z,16
2018-06-10T12:11:01.842Z,17
2018-06-10T12:12:04.183Z,17
2018-06-10T12:13:06.227Z,18
2018-06-10T12:14:08.670Z,18
2018-06-10T12:15:10.694Z,19
2018-06-10T12:16:13.002Z,19
2018-06-10T12:17:15.025Z,18
2018-06-10T12:18:17.339Z,18
2018-06-10T12:19:19.387Z,16
2018-06-10T12:20:21.493Z,15
2018-06-10T12:21:23.505Z,14
2018-06-10T12:22:25.830Z,12
2018-06-10T12:23:27.867Z,11
2018-06-10T12:24:29.882Z,11
2018-06-10T12:25:32.420Z,11
2018-06-10T12:26:34.440Z,11
2018-06-10T12:27:36.459Z,11
2018-06-10T12:28:38.482Z,10
2018-06-10T12:29:40.501Z,10
2018-06-10T12:30:42.520Z,9
2018-06-10T12:31:44.546Z,8
2018-06-10T12:32:46.560Z,7
2018-06-10T12:33:48.862Z,7
2018-06-10T12:34:50.875Z,7
2018-06-10T12:35:53.564Z,8
2018-06-10T12:36:55.579Z,8
2018-06-10T12:37:57.622Z,8
2018-06-10T12:39:00.074Z,9
2018-06-10T12:40:02.108Z,9
2018-06-10T12:41:04.198Z,9
2018-06-10T12:42:06.544Z,9
2018-06-10T12:43:08.944Z,10
2018-06-10T12:44:11.332Z,10
2018-06-10T12:45:13.358Z,11
2018-06-10T12:46:15.386Z,12
2018-06-10T12:47:17.399Z,12
2018-06-10T12:48:19.410Z,13
2018-06-10T12:49:21.525Z,14
2018-06-10T12:50:23.489Z,15
2018-06-10T12:51:26.979Z,16
2018-06-10T12:52:29.071Z,16
2018-06-10T12:53:31.083Z,17
2018-06-10T12:54:33.152Z,18
2018-06-10T12:55:35.794Z,20
2018-06-10T12:56:37.804Z,21
2018-06-10T12:57:40.107Z,22
2018-06-10T12:58:42.157Z,23
2018-06-10T12:59:44.397Z,23
2018-06-10T13:00:46.409Z,24
2018-06-10T13:01:48.699Z,24
2018-06-10T13:02:50.716Z,25
2018-06-10T13:03:52.722Z,26
2018-06-10T13:04:54.725Z,27
2018-06-10T13:05:56.738Z,28
2018-06-10T13:06:59.026Z,29
2018-06-10T13:08:01.030Z,30
2018-06-10T13:09:03.042Z,32
2018-06-10T13:10:05.330Z,33
2018-06-10T13:11:07.427Z,35
2018-06-10T13:12:09.729Z,36
2018-06-10T13:13:11.792Z,37
2018-06-10T13:14:14.113Z,38
2018-06-10T13:15:16.118Z,39
2018-06-10T13:16:18.117Z,40
2018-06-10T13:17:20.128Z,42
2018-06-10T13:18:22.133Z,43
2018-06-10T13:19:24.433Z,45
2018-06-10T13:20:26.435Z,47
2018-06-10T13:21:28.749Z,50
2018-06-10T13:22:41.798Z,54
2018-06-10T13:23:44.150Z,56
2018-06-10T13:24:46.502Z,61
2018-06-10T13:25:48.800Z,66
2018-06-10T13:26:51.501Z,73
2018-06-10T13:27:53.513Z,83
2018-06-10T13:28:56.326Z,92
2018-06-10T13:29:58.404Z,100
2018-06-10T13:31:00.707Z,103
2018-06-10T13:32:03.235Z,105
2018-06-10T13:33:05.246Z,104
2018-06-10T13:34:08.032Z,105
2018-06-10T13:35:15.098Z,103
2018-06-10T13:36:17.305Z,102
2018-06-10T13:37:19.339Z,103
2018-06-10T13:38:21.320Z,101
2018-06-10T13:39:25.048Z,103
2018-06-10T13:40:27.642Z,105
2018-06-10T13:41:32.160Z,113
2018-06-10T13:42:35.488Z,129
2018-06-10T13:43:39.667Z,162
2018-06-10T13:44:42.934Z,146
2018-06-10T13:45:45.334Z,145
2018-06-10T13:46:48.251Z,146
2018-06-10T13:47:51.420Z,149
2018-06-10T13:48:55.032Z,149
2018-06-10T13:49:59.767Z,149
2018-06-10T13:51:02.936Z,151
2018-06-10T13:52:09.356Z,154
2018-06-10T13:53:13.328Z,161
2018-06-10T13:54:16.385Z,165
2018-06-10T13:55:20.683Z,171
2018-06-10T13:56:24.158Z,177
2018-06-10T13:57:27.023Z,176
2018-06-10T13:58:32.177Z,172
2018-06-10T13:59:35.766Z,183
2018-06-10T14:00:39.474Z,224
2018-06-10T14:01:44.845Z,239
2018-06-10T14:02:48.328Z,246
2018-06-10T14:03:50.684Z,235
2018-06-10T14:04:53.107Z,213
2018-06-10T14:06:01.600Z,205
2018-06-10T14:07:03.998Z,188
2018-06-10T14:08:07.867Z,182
2018-06-10T14:09:10.314Z,182
2018-06-10T14:10:12.365Z,187
2018-06-10T14:11:14.425Z,205
2018-06-10T14:12:16.491Z,223
2018-06-10T14:13:19.125Z,242
2018-06-10T14:14:21.180Z,206
2018-06-10T14:15:23.816Z,203
2018-06-10T14:16:26.571Z,237
2018-06-10T14:17:28.623Z,195
2018-06-10T14:18:30.670Z,175
2018-06-10T14:19:32.724Z,167
2018-06-10T14:20:34.780Z,158
2018-06-10T14:21:37.111Z,137
2018-06-10T14:22:39.163Z,129
2018-06-10T14:23:41.596Z,126
2018-06-10T14:24:43.658Z,124
2018-06-10T14:25:45.691Z,121
2018-06-10T14:26:47.744Z,118
2018-06-10T14:27:50.098Z,115
2018-06-10T14:28:52.430Z,113
2018-06-10T14:29:54.490Z,113
2018-06-10T14:30:56.933Z,112
2018-06-10T14:31:58.991Z,111
2018-06-10T14:33:01.040Z,112
2018-06-10T14:34:03.093Z,107
2018-06-10T14:35:05.543Z,102
2018-06-10T14:36:07.597Z,96
2018-06-10T14:37:10.020Z,88
2018-06-10T14:38:12.077Z,81
2018-06-10T14:39:14.129Z,72
2018-06-10T14:40:16.176Z,66
2018-06-10T14:41:18.527Z,60
2018-06-10T14:42:20.959Z,55
2018-06-10T14:43:23.016Z,52
2018-06-10T14:44:25.343Z,47
2018-06-10T14:45:27.686Z,44
2018-06-10T14:46:29.743Z,41
2018-06-10T14:47:32.503Z,39